Time,TemperatureF,DewpointF,PressureIn,WindDirection,WindDirectionDegrees,WindSpeedMPH,WindSpeedGustMPH,Humidity,HourlyPrecipIn,Conditions,Clouds,dailyrainin,SoftwareType,DateUTC
2013-06-26 00:11:00,59.0,48.0,-100.00,NW,319,3.0,10.0,66,0.00,,,0.00,,2013-06-26 07:11:00,
2013-06-26 00:22:00,59.0,48.0,-100.00,NW,319,3.0,10.0,66,0.00,,,0.00,,2013-06-26 07:22:00,
2013-06-26 00:33:00,59.0,48.0,-100.00,NW,319,3.0,10.0,66,0.00,,,0.00,,2013-06-26 07:33:00,
2013-06-26 00:43:00,59.0,48.0,-100.00,NW,319,3.0,10.0,66,0.00,,,0.00,,2013-06-26 07:43:00,
2013-06-26 01:22:00,59.0,52.0,-100.00,WNW,298,4.0,9.0,77,0.00,,,0.00,,2013-06-26 08:22:00,
2013-06-26 01:33:00,59.0,52.0,-100.00,WNW,298,4.0,9.0,77,0.00,,,0.00,,2013-06-26 08:33:00,
2013-06-26 01:42:00,59.0,52.0,-100.00,WNW,298,4.0,9.0,77,0.00,,,0.00,,2013-06-26 08:42:00,
2013-06-26 01:52:00,59.0,52.0,-100.00,WNW,298,4.0,9.0,77,0.00,,,0.00,,2013-06-26 08:52:00,
2013-06-26 01:53:00,58.0,52.0,-100.00,NW,320,3.0,7.0,81,0.00,,,0.00,,2013-06-26 08:53:00,
2013-06-26 02:11:00,58.0,52.0,-100.00,NW,320,3.0,7.0,81,0.00,,,0.00,,2013-06-26 09:11:00,
2013-06-26 02:22:00,58.0,52.0,-100.00,NW,320,3.0,7.0,81,0.00,,,0.00,,2013-06-26 09:22:00,
2013-06-26 02:32:00,58.0,52.0,-100.00,NW,320,3.0,7.0,81,0.00,,,0.00,,2013-06-26 09:32:00,
2013-06-26 02:43:00,58.0,52.0,-100.00,NW,320,3.0,7.0,81,0.00,,,0.00,,2013-06-26 09:43:00,
2013-06-26 02:53:00,57.0,51.0,-100.00,North,355,2.0,7.0,80,0.00,,,0.00,,2013-06-26 09:53:00,
2013-06-26 03:12:00,57.0,51.0,-100.00,North,355,2.0,7.0,80,0.00,,,0.00,,2013-06-26 10:12:00,
2013-06-26 03:22:00,57.0,51.0,-100.00,North,355,2.0,7.0,80,0.00,,,0.00,,2013-06-26 10:22:00,
2013-06-26 03:34:00,57.0,51.0,-100.00,North,355,2.0,7.0,80,0.00,,,0.00,,2013-06-26 10:34:00,
2013-06-26 03:43:00,57.0,51.0,-100.00,North,355,2.0,7.0,80,0.00,,,0.00,,2013-06-26 10:43:00,
2013-06-26 04:11:00,57.0,52.0,-100.00,NW,320,3.0,6.0,83,0.00,,,0.00,,2013-06-26 11:11:00,
2013-06-26 04:22:00,57.0,52.0,-100.00,NW,320,3.0,6.0,83,0.00,,,0.00,,2013-06-26 11:22:00,
2013-06-26 04:32:00,57.0,52.0,-100.00,NW,320,3.0,6.0,83,0.00,,,0.00,,2013-06-26 11:32:00,
2013-06-26 04:44:00,57.0,52.0,-100.00,NW,320,3.0,6.0,83,0.00,,,0.00,,2013-06-26 11:44:00,
2013-06-26 04:52:00,57.0,52.0,-100.00,NW,320,3.0,6.0,83,0.00,,,0.00,,2013-06-26 11:52:00,
2013-06-26 05:12:00,56.0,52.0,-100.00,NNW,346,2.0,6.0,86,0.00,,,0.00,,2013-06-26 12:12:00,
2013-06-26 05:22:00,56.0,52.0,-100.00,NNW,346,2.0,6.0,86,0.00,,,0.00,,2013-06-26 12:22:00,
2013-06-26 05:33:00,56.0,52.0,-100.00,NNW,346,2.0,6.0,86,0.00,,,0.00,,2013-06-26 12:33:00,
2013-06-26 05:42:00,56.0,52.0,-100.00,NNW,346,2.0,6.0,86,0.00,,,0.00,,2013-06-26 12:42:00,
2013-06-26 05:52:00,56.0,52.0,-100.00,NNW,346,2.0,6.0,86,0.00,,,0.00,,2013-06-26 12:52:00,
2013-06-26 05:53:00,55.0,51.0,-100.00,NNE,23,2.0,6.0,85,0.00,,,0.00,,2013-06-26 12:53:00,
2013-06-26 06:22:00,55.0,51.0,-100.00,NNE,23,2.0,6.0,85,0.00,,,0.00,,2013-06-26 13:22:00,
2013-06-26 06:34:00,55.0,51.0,-100.00,NNE,23,2.0,6.0,85,0.00,,,0.00,,2013-06-26 13:34:00,
2013-06-26 06:42:00,55.0,51.0,-100.00,NNE,23,2.0,6.0,85,0.00,,,0.00,,2013-06-26 13:42:00,
2013-06-26 07:23:00,54.0,52.0,-100.00,ESE,120,1.0,5.0,93,0.00,,,0.00,,2013-06-26 14:23:00,
2013-06-26 07:34:00,54.0,52.0,-100.00,ESE,120,1.0,5.0,93,0.00,,,0.00,,2013-06-26 14:34:00,
2013-06-26 07:42:00,54.0,52.0,-100.00,ESE,120,1.0,5.0,93,0.00,,,0.00,,2013-06-26 14:42:00,
2013-06-26 07:52:00,54.0,52.0,-100.00,ESE,120,1.0,5.0,93,0.00,,,0.00,,2013-06-26 14:52:00,
2013-06-26 07:53:00,61.0,54.0,-100.00,NNW,338,3.0,5.0,77,0.00,,,0.00,,2013-06-26 14:53:00,
2013-06-26 08:11:00,61.0,54.0,-100.00,NNW,338,3.0,5.0,77,0.00,,,0.00,,2013-06-26 15:11:00,
2013-06-26 08:22:00,61.0,54.0,-100.00,NNW,338,3.0,5.0,77,0.00,,,0.00,,2013-06-26 15:22:00,
2013-06-26 08:34:00,61.0,54.0,-100.00,NNW,338,3.0,5.0,77,0.00,,,0.00,,2013-06-26 15:34:00,
2013-06-26 08:43:00,61.0,54.0,-100.00,NNW,338,3.0,5.0,77,0.00,,,0.00,,2013-06-26 15:43:00,
2013-06-26 09:11:00,65.0,53.0,-100.00,WNW,285,4.0,6.0,65,0.00,,,0.00,,2013-06-26 16:11:00,
2013-06-26 09:22:00,65.0,53.0,-100.00,WNW,285,4.0,6.0,65,0.00,,,0.00,,2013-06-26 16:22:00,
2013-06-26 09:34:00,65.0,53.0,-100.00,WNW,285,4.0,6.0,65,0.00,,,0.00,,2013-06-26 16:34:00,
2013-06-26 09:43:00,65.0,53.0,-100.00,WNW,285,4.0,6.0,65,0.00,,,0.00,,2013-06-26 16:43:00,
2013-06-26 09:52:00,65.0,53.0,-100.00,WNW,285,4.0,6.0,65,0.00,,,0.00,,2013-06-26 16:52:00,
2013-06-26 10:23:00,70.0,54.0,-100.00,WNW,287,4.0,7.0,56,-99.99,,,0.00,,2013-06-26 17:23:00,
2013-06-26 10:33:00,70.0,54.0,-100.00,WNW,287,4.0,7.0,56,-99.99,,,0.00,,2013-06-26 17:33:00,
2013-06-26 10:43:00,70.0,54.0,-100.00,WNW,287,4.0,7.0,56,-99.99,,,0.00,,2013-06-26 17:43:00,
2013-06-26 10:52:00,70.0,54.0,-100.00,WNW,287,4.0,7.0,56,-99.99,,,0.00,,2013-06-26 17:52:00,
2013-06-26 11:22:00,75.0,53.0,-100.00,West,280,4.0,8.0,47,0.00,,,0.00,,2013-06-26 18:22:00,
2013-06-26 11:34:00,75.0,53.0,-100.00,West,280,4.0,8.0,47,0.00,,,0.00,,2013-06-26 18:34:00,
2013-06-26 11:43:00,75.0,53.0,-100.00,West,280,4.0,8.0,47,0.00,,,0.00,,2013-06-26 18:43:00,
2013-06-26 11:52:00,75.0,53.0,-100.00,West,280,4.0,8.0,47,0.00,,,0.00,,2013-06-26 18:52:00,
2013-06-26 12:11:00,77.0,52.0,-100.00,WNW,283,5.0,10.0,42,0.00,,,0.00,,2013-06-26 19:11:00,
2013-06-26 12:22:00,77.0,52.0,-100.00,WNW,283,5.0,10.0,42,0.00,,,0.00,,2013-06-26 19:22:00,
2013-06-26 12:32:00,77.0,52.0,-100.00,WNW,283,5.0,10.0,42,0.00,,,0.00,,2013-06-26 19:32:00,
2013-06-26 12:42:00,77.0,52.0,-100.00,WNW,283,5.0,10.0,42,0.00,,,0.00,,2013-06-26 19:42:00,
2013-06-26 12:52:00,77.0,52.0,-100.00,WNW,283,5.0,10.0,42,0.00,,,0.00,,2013-06-26 19:52:00,
2013-06-26 13:22:00,77.0,53.0,-100.00,WNW,290,5.0,9.0,44,0.00,,,0.00,,2013-06-26 20:22:00,
2013-06-26 13:33:00,77.0,53.0,-100.00,WNW,290,5.0,9.0,44,0.00,,,0.00,,2013-06-26 20:33:00,
2013-06-26 13:43:00,77.0,53.0,-100.00,WNW,290,5.0,9.0,44,0.00,,,0.00,,2013-06-26 20:43:00,
2013-06-26 13:52:00,77.0,53.0,-100.00,WNW,290,5.0,9.0,44,0.00,,,0.00,,2013-06-26 20:52:00,
2013-06-26 14:11:00,78.0,54.0,-100.00,West,273,6.0,10.0,43,0.00,,,0.00,,2013-06-26 21:11:00,
2013-06-26 14:23:00,78.0,54.0,-100.00,West,273,6.0,10.0,43,0.00,,,0.00,,2013-06-26 21:23:00,
2013-06-26 14:33:00,78.0,54.0,-100.00,West,273,6.0,10.0,43,0.00,,,0.00,,2013-06-26 21:33:00,
2013-06-26 14:43:00,78.0,54.0,-100.00,West,273,6.0,10.0,43,0.00,,,0.00,,2013-06-26 21:43:00,
2013-06-26 14:52:00,78.0,54.0,-100.00,West,273,6.0,10.0,43,0.00,,,0.00,,2013-06-26 21:52:00,
2013-06-26 15:21:00,79.0,53.0,-100.00,WNW,288,6.0,10.0,40,0.00,,,0.00,,2013-06-26 22:21:00,
2013-06-26 15:33:00,79.0,53.0,-100.00,WNW,288,6.0,10.0,40,0.00,,,0.00,,2013-06-26 22:33:00,
2013-06-26 15:43:00,79.0,53.0,-100.00,WNW,288,6.0,10.0,40,0.00,,,0.00,,2013-06-26 22:43:00,
2013-06-26 15:52:00,79.0,53.0,-100.00,WNW,288,6.0,10.0,40,0.00,,,0.00,,2013-06-26 22:52:00,
2013-06-26 16:11:00,78.0,52.0,-100.00,WNW,288,6.0,10.0,41,0.00,,,0.00,,2013-06-26 23:11:00,
2013-06-26 16:22:00,78.0,52.0,-100.00,WNW,288,6.0,10.0,41,0.00,,,0.00,,2013-06-26 23:22:00,
2013-06-26 16:34:00,78.0,52.0,-100.00,WNW,288,6.0,10.0,41,0.00,,,0.00,,2013-06-26 23:34:00,
2013-06-26 16:43:00,78.0,52.0,-100.00,WNW,288,6.0,10.0,41,0.00,,,0.00,,2013-06-26 23:43:00,
2013-06-26 16:52:00,78.0,52.0,-100.00,WNW,288,6.0,10.0,41,0.00,,,0.00,,2013-06-26 23:52:00,
2013-06-26 16:53:00,77.0,51.0,-100.00,WNW,299,6.0,11.0,40,0.00,,,0.00,,2013-06-26 23:53:00,
2013-06-26 17:22:00,77.0,51.0,-100.00,WNW,299,6.0,11.0,40,0.00,,,0.00,,2013-06-27 00:22:00,
2013-06-26 17:33:00,77.0,51.0,-100.00,WNW,299,6.0,11.0,40,0.00,,,0.00,,2013-06-27 00:33:00,
2013-06-26 17:42:00,77.0,51.0,-100.00,WNW,299,6.0,11.0,40,0.00,,,0.00,,2013-06-27 00:42:00,
2013-06-26 18:11:00,74.0,51.0,-100.00,WNW,290,5.0,11.0,44,0.00,,,0.00,,2013-06-27 01:11:00,
2013-06-26 18:21:00,74.0,51.0,-100.00,WNW,290,5.0,11.0,44,0.00,,,0.00,,2013-06-27 01:21:00,
2013-06-26 18:32:00,74.0,51.0,-100.00,WNW,290,5.0,11.0,44,0.00,,,0.00,,2013-06-27 01:32:00,
2013-06-26 18:42:00,74.0,51.0,-100.00,WNW,290,5.0,11.0,44,0.00,,,0.00,,2013-06-27 01:42:00,
2013-06-26 18:52:00,74.0,51.0,-100.00,WNW,290,5.0,11.0,44,0.00,,,0.00,,2013-06-27 01:52:00,
2013-06-26 19:11:00,72.0,54.0,-100.00,WNW,285,5.0,9.0,53,0.00,,,0.00,,2013-06-27 02:11:00,
2013-06-26 19:22:00,72.0,54.0,-100.00,WNW,285,5.0,9.0,53,0.00,,,0.00,,2013-06-27 02:22:00,
2013-06-26 19:32:00,72.0,54.0,-100.00,WNW,285,5.0,9.0,53,0.00,,,0.00,,2013-06-27 02:32:00,
2013-06-26 19:42:00,72.0,54.0,-100.00,WNW,285,5.0,9.0,53,0.00,,,0.00,,2013-06-27 02:42:00,
2013-06-26 19:52:00,72.0,54.0,-100.00,WNW,285,5.0,9.0,53,0.00,,,0.00,,2013-06-27 02:52:00,
2013-06-26 20:11:00,68.0,54.0,-100.00,WNW,296,4.0,8.0,60,0.00,,,0.00,,2013-06-27 03:11:00,
2013-06-26 20:21:00,68.0,54.0,-100.00,WNW,296,4.0,8.0,60,0.00,,,0.00,,2013-06-27 03:21:00,
2013-06-26 20:32:00,68.0,54.0,-100.00,WNW,296,4.0,8.0,60,0.00,,,0.00,,2013-06-27 03:32:00,
2013-06-26 20:42:00,68.0,54.0,-100.00,WNW,296,4.0,8.0,60,0.00,,,0.00,,2013-06-27 03:42:00,
2013-06-26 20:52:00,68.0,54.0,-100.00,WNW,296,4.0,8.0,60,0.00,,,0.00,,2013-06-27 03:52:00,
2013-06-26 21:11:00,64.0,54.0,-100.00,North,349,3.0,6.0,71,0.00,,,0.00,,2013-06-27 04:11:00,
2013-06-26 21:22:00,64.0,54.0,-100.00,North,349,3.0,6.0,71,0.00,,,0.00,,2013-06-27 04:22:00,
2013-06-26 21:32:00,64.0,54.0,-100.00,North,349,3.0,6.0,71,0.00,,,0.00,,2013-06-27 04:32:00,
2013-06-26 21:52:00,64.0,54.0,-100.00,North,349,3.0,6.0,71,0.00,,,0.00,,2013-06-27 04:52:00,
2013-06-26 21:53:00,60.0,54.0,-100.00,ESE,109,1.0,4.0,81,0.00,,,0.00,,2013-06-27 04:53:00,
2013-06-26 22:53:00,61.0,43.0,-100.00,ESE,114,2.0,4.0,51,-99.99,,,0.00,,2013-06-27 05:53:00,